sensor_id;sensor_type;location;lat;lon;timestamp;temperature;humidity
6333;DHT22;3199;49.102;8.856;2023-04-29T00:00:41;13.70;99.90
6333;DHT22;3199;49.102;8.856;2023-04-29T00:03:07;13.70;99.90
6333;DHT22;3199;49.102;8.856;2023-04-29T00:05:32;13.70;99.90
6333;DHT22;3199;49.102;8.856;2023-04-29T00:07:58;13.70;99.90
6333;DHT22;3199;49.102;8.856;2023-04-29T00:10:23;13.70;99.90
6333;DHT22;3199;49.102;8.856;2023-04-29T00:12:49;13.70;99.90
6333;DHT22;3199;49.102;8.856;2023-04-29T00:15:16;13.70;99.90
6333;DHT22;3199;49.102;8.856;2023-04-29T00:17:41;13.70;99.90
6333;DHT22;3199;49.102;8.856;2023-04-29T00:20:07;13.70;99.90
6333;DHT22;3199;49.102;8.856;2023-04-29T00:22:33;13.70;99.90
6333;DHT22;3199;49.102;8.856;2023-04-29T00:25:00;13.60;99.90
6333;DHT22;3199;49.102;8.856;2023-04-29T00:27:25;13.60;99.90
6333;DHT22;3199;49.102;8.856;2023-04-29T00:29:51;13.60;99.90
6333;DHT22;3199;49.102;8.856;2023-04-29T00:32:17;13.60;99.90
6333;DHT22;3199;49.102;8.856;2023-04-29T00:34:42;13.60;99.90
6333;DHT22;3199;49.102;8.856;2023-04-29T00:37:08;13.60;99.90
6333;DHT22;3199;49.102;8.856;2023-04-29T00:39:33;13.50;99.90
6333;DHT22;3199;49.102;8.856;2023-04-29T00:41:59;13.50;99.90
6333;DHT22;3199;49.102;8.856;2023-04-29T00:44:25;13.50;99.90
6333;DHT22;3199;49.102;8.856;2023-04-29T00:46:50;13.50;99.90
6333;DHT22;3199;49.102;8.856;2023-04-29T00:49:16;13.40;99.90
6333;DHT22;3199;49.102;8.856;2023-04-29T00:51:41;13.50;99.90
6333;DHT22;3199;49.102;8.856;2023-04-29T00:54:09;13.40;99.90
6333;DHT22;3199;49.102;8.856;2023-04-29T00:56:36;13.40;99.90
6333;DHT22;3199;49.102;8.856;2023-04-29T00:59:03;13.40;99.90
6333;DHT22;3199;49.102;8.856;2023-04-29T01:01:30;13.40;99.90
6333;DHT22;3199;49.102;8.856;2023-04-29T01:03:56;13.40;99.90
6333;DHT22;3199;49.102;8.856;2023-04-29T01:09:49;13.40;99.90
6333;DHT22;3199;49.102;8.856;2023-04-29T01:12:38;13.40;99.90
6333;DHT22;3199;49.102;8.856;2023-04-29T01:15:16;13.30;99.90
6333;DHT22;3199;49.102;8.856;2023-04-29T01:18:04;13.30;99.90
6333;DHT22;3199;49.102;8.856;2023-04-29T01:20:31;13.40;99.90
6333;DHT22;3199;49.102;8.856;2023-04-29T01:22:57;13.30;99.90
6333;DHT22;3199;49.102;8.856;2023-04-29T01:25:23;13.30;99.90
6333;DHT22;3199;49.102;8.856;2023-04-29T01:30:49;13.20;99.90
6333;DHT22;3199;49.102;8.856;2023-04-29T01:33:37;13.20;99.90
6333;DHT22;3199;49.102;8.856;2023-04-29T01:36:28;13.20;99.90
6333;DHT22;3199;49.102;8.856;2023-04-29T01:42:03;13.10;99.90
6333;DHT22;3199;49.102;8.856;2023-04-29T01:44:32;13.10;99.90
6333;DHT22;3199;49.102;8.856;2023-04-29T01:46:58;13.20;99.90
6333;DHT22;3199;49.102;8.856;2023-04-29T01:49:26;13.10;99.90
6333;DHT22;3199;49.102;8.856;2023-04-29T01:51:52;13.10;99.90
6333;DHT22;3199;49.102;8.856;2023-04-29T01:54:18;13.20;99.90
6333;DHT22;3199;49.102;8.856;2023-04-29T01:56:44;13.10;99.90
6333;DHT22;3199;49.102;8.856;2023-04-29T01:59:09;13.10;99.90
6333;DHT22;3199;49.102;8.856;2023-04-29T02:01:35;13.10;99.90
6333;DHT22;3199;49.102;8.856;2023-04-29T02:04:01;13.20;99.90
6333;DHT22;3199;49.102;8.856;2023-04-29T02:06:27;13.10;99.90
6333;DHT22;3199;49.102;8.856;2023-04-29T02:08:53;13.10;99.90
6333;DHT22;3199;49.102;8.856;2023-04-29T02:11:18;13.10;99.90
6333;DHT22;3199;49.102;8.856;2023-04-29T02:13:44;13.00;99.90
6333;DHT22;3199;49.102;8.856;2023-04-29T02:16:11;13.00;99.90
6333;DHT22;3199;49.102;8.856;2023-04-29T02:18:37;13.00;99.90
6333;DHT22;3199;49.102;8.856;2023-04-29T02:21:02;13.00;99.90
6333;DHT22;3199;49.102;8.856;2023-04-29T02:23:28;12.90;99.90
6333;DHT22;3199;49.102;8.856;2023-04-29T02:25:54;12.90;99.90
6333;DHT22;3199;49.102;8.856;2023-04-29T02:28:20;12.90;99.90
6333;DHT22;3199;49.102;8.856;2023-04-29T02:30:47;12.90;99.90
6333;DHT22;3199;49.102;8.856;2023-04-29T02:33:13;12.80;99.90
6333;DHT22;3199;49.102;8.856;2023-04-29T02:35:39;12.80;99.90
6333;DHT22;3199;49.102;8.856;2023-04-29T02:38:05;12.80;99.90
6333;DHT22;3199;49.102;8.856;2023-04-29T02:40:30;12.80;99.90
6333;DHT22;3199;49.102;8.856;2023-04-29T02:42:56;12.70;99.90
6333;DHT22;3199;49.102;8.856;2023-04-29T02:45:21;12.70;99.90
6333;DHT22;3199;49.102;8.856;2023-04-29T02:47:47;12.70;99.90
6333;DHT22;3199;49.102;8.856;2023-04-29T02:50:13;12.70;99.90
6333;DHT22;3199;49.102;8.856;2023-04-29T02:52:38;12.70;99.90
6333;DHT22;3199;49.102;8.856;2023-04-29T02:55:06;12.70;99.90
6333;DHT22;3199;49.102;8.856;2023-04-29T02:57:32;12.70;99.90
6333;DHT22;3199;49.102;8.856;2023-04-29T02:59:58;12.70;99.90
6333;DHT22;3199;49.102;8.856;2023-04-29T03:02:23;12.60;99.90
6333;DHT22;3199;49.102;8.856;2023-04-29T03:04:49;12.70;99.90
6333;DHT22;3199;49.102;8.856;2023-04-29T03:07:15;12.70;99.90
6333;DHT22;3199;49.102;8.856;2023-04-29T03:09:41;12.70;99.90
6333;DHT22;3199;49.102;8.856;2023-04-29T03:12:07;12.70;99.90
6333;DHT22;3199;49.102;8.856;2023-04-29T03:14:33;12.70;99.90
6333;DHT22;3199;49.102;8.856;2023-04-29T03:16:58;12.70;99.90
6333;DHT22;3199;49.102;8.856;2023-04-29T03:19:24;12.70;99.90
6333;DHT22;3199;49.102;8.856;2023-04-29T03:21:49;12.70;99.90
6333;DHT22;3199;49.102;8.856;2023-04-29T03:24:15;12.70;99.90
6333;DHT22;3199;49.102;8.856;2023-04-29T03:26:40;12.70;99.90
6333;DHT22;3199;49.102;8.856;2023-04-29T03:29:07;12.70;99.90
6333;DHT22;3199;49.102;8.856;2023-04-29T03:31:33;12.70;99.90
6333;DHT22;3199;49.102;8.856;2023-04-29T03:33:58;12.60;99.90
6333;DHT22;3199;49.102;8.856;2023-04-29T03:36:24;12.60;99.90
6333;DHT22;3199;49.102;8.856;2023-04-29T03:38:50;12.60;99.90
6333;DHT22;3199;49.102;8.856;2023-04-29T03:41:16;12.60;99.90
6333;DHT22;3199;49.102;8.856;2023-04-29T03:43:42;12.60;99.90
6333;DHT22;3199;49.102;8.856;2023-04-29T03:46:10;12.60;99.90
6333;DHT22;3199;49.102;8.856;2023-04-29T03:48:36;12.60;99.90
6333;DHT22;3199;49.102;8.856;2023-04-29T03:51:02;12.60;99.90
6333;DHT22;3199;49.102;8.856;2023-04-29T03:53:28;12.50;99.90
6333;DHT22;3199;49.102;8.856;2023-04-29T03:55:53;12.50;99.90
6333;DHT22;3199;49.102;8.856;2023-04-29T03:58:19;12.50;99.90
6333;DHT22;3199;49.102;8.856;2023-04-29T04:00:44;12.50;99.90
6333;DHT22;3199;49.102;8.856;2023-04-29T04:03:10;12.50;99.90
6333;DHT22;3199;49.102;8.856;2023-04-29T04:05:36;12.50;99.90
6333;DHT22;3199;49.102;8.856;2023-04-29T04:08:02;12.50;99.90
6333;DHT22;3199;49.102;8.856;2023-04-29T04:10:27;12.50;99.90
6333;DHT22;3199;49.102;8.856;2023-04-29T04:12:53;12.50;99.90
6333;DHT22;3199;49.102;8.856;2023-04-29T04:15:18;12.50;99.90
6333;DHT22;3199;49.102;8.856;2023-04-29T04:17:44;12.50;99.90
6333;DHT22;3199;49.102;8.856;2023-04-29T04:20:10;12.60;99.90
6333;DHT22;3199;49.102;8.856;2023-04-29T04:22:36;12.60;99.90
6333;DHT22;3199;49.102;8.856;2023-04-29T04:25:02;12.60;99.90
6333;DHT22;3199;49.102;8.856;2023-04-29T04:27:28;12.70;99.90
6333;DHT22;3199;49.102;8.856;2023-04-29T04:29:54;12.70;99.90
6333;DHT22;3199;49.102;8.856;2023-04-29T04:32:21;12.70;99.90
6333;DHT22;3199;49.102;8.856;2023-04-29T04:34:48;12.70;99.90
6333;DHT22;3199;49.102;8.856;2023-04-29T04:37:13;12.70;99.90
6333;DHT22;3199;49.102;8.856;2023-04-29T04:39:39;12.70;99.90
6333;DHT22;3199;49.102;8.856;2023-04-29T04:42:04;12.70;99.90
6333;DHT22;3199;49.102;8.856;2023-04-29T04:44:31;12.70;99.90
6333;DHT22;3199;49.102;8.856;2023-04-29T04:46:57;12.70;99.90
6333;DHT22;3199;49.102;8.856;2023-04-29T04:49:23;12.80;99.90
6333;DHT22;3199;49.102;8.856;2023-04-29T04:51:51;12.80;99.90
6333;DHT22;3199;49.102;8.856;2023-04-29T04:54:17;12.80;99.90
6333;DHT22;3199;49.102;8.856;2023-04-29T04:56:43;12.80;99.90
6333;DHT22;3199;49.102;8.856;2023-04-29T04:59:08;12.80;99.90
6333;DHT22;3199;49.102;8.856;2023-04-29T05:01:34;12.80;99.90
6333;DHT22;3199;49.102;8.856;2023-04-29T05:03:59;12.80;99.90
6333;DHT22;3199;49.102;8.856;2023-04-29T05:06:26;12.80;99.90
6333;DHT22;3199;49.102;8.856;2023-04-29T05:08:52;12.80;99.90
6333;DHT22;3199;49.102;8.856;2023-04-29T05:11:19;12.80;99.90
6333;DHT22;3199;49.102;8.856;2023-04-29T05:13:45;12.80;99.90
6333;DHT22;3199;49.102;8.856;2023-04-29T05:16:11;12.80;99.90
6333;DHT22;3199;49.102;8.856;2023-04-29T05:18:36;12.80;99.90
6333;DHT22;3199;49.102;8.856;2023-04-29T05:21:02;12.80;99.90
6333;DHT22;3199;49.102;8.856;2023-04-29T05:23:28;12.80;99.90
6333;DHT22;3199;49.102;8.856;2023-04-29T05:25:53;12.80;99.90
6333;DHT22;3199;49.102;8.856;2023-04-29T05:28:19;12.70;99.90
6333;DHT22;3199;49.102;8.856;2023-04-29T05:30:44;12.80;99.90
6333;DHT22;3199;49.102;8.856;2023-04-29T05:33:10;12.80;99.90
6333;DHT22;3199;49.102;8.856;2023-04-29T05:35:36;12.90;99.90
6333;DHT22;3199;49.102;8.856;2023-04-29T05:38:02;13.00;99.90
6333;DHT22;3199;49.102;8.856;2023-04-29T05:40:28;13.00;99.90
6333;DHT22;3199;49.102;8.856;2023-04-29T05:42:53;13.10;99.90
6333;DHT22;3199;49.102;8.856;2023-04-29T05:45:19;13.20;99.90
6333;DHT22;3199;49.102;8.856;2023-04-29T05:47:44;13.30;99.90
6333;DHT22;3199;49.102;8.856;2023-04-29T05:50:10;13.40;99.90
6333;DHT22;3199;49.102;8.856;2023-04-29T05:52:36;13.50;99.90
6333;DHT22;3199;49.102;8.856;2023-04-29T05:55:01;13.70;99.90
6333;DHT22;3199;49.102;8.856;2023-04-29T05:57:27;13.80;99.90
6333;DHT22;3199;49.102;8.856;2023-04-29T05:59:53;14.00;99.90
6333;DHT22;3199;49.102;8.856;2023-04-29T06:02:19;14.00;99.90
6333;DHT22;3199;49.102;8.856;2023-04-29T06:04:45;14.20;99.90
6333;DHT22;3199;49.102;8.856;2023-04-29T06:07:12;14.40;99.90
6333;DHT22;3199;49.102;8.856;2023-04-29T06:09:38;14.50;99.90
6333;DHT22;3199;49.102;8.856;2023-04-29T06:12:04;14.70;99.90
6333;DHT22;3199;49.102;8.856;2023-04-29T06:14:30;14.70;99.90
6333;DHT22;3199;49.102;8.856;2023-04-29T06:16:56;14.60;99.90
6333;DHT22;3199;49.102;8.856;2023-04-29T06:19:21;14.60;99.90
6333;DHT22;3199;49.102;8.856;2023-04-29T06:21:47;14.70;99.90
6333;DHT22;3199;49.102;8.856;2023-04-29T06:24:13;14.60;99.90
6333;DHT22;3199;49.102;8.856;2023-04-29T06:26:38;14.70;99.90
6333;DHT22;3199;49.102;8.856;2023-04-29T06:29:04;14.70;99.90
6333;DHT22;3199;49.102;8.856;2023-04-29T06:31:30;14.70;99.90
6333;DHT22;3199;49.102;8.856;2023-04-29T06:33:55;14.80;99.90
6333;DHT22;3199;49.102;8.856;2023-04-29T06:36:21;14.90;99.90
6333;DHT22;3199;49.102;8.856;2023-04-29T06:38:46;14.80;99.90
6333;DHT22;3199;49.102;8.856;2023-04-29T06:41:12;14.80;99.90
6333;DHT22;3199;49.102;8.856;2023-04-29T06:43:37;14.70;99.90
6333;DHT22;3199;49.102;8.856;2023-04-29T06:46:03;14.70;99.90
6333;DHT22;3199;49.102;8.856;2023-04-29T06:48:28;14.80;99.90
6333;DHT22;3199;49.102;8.856;2023-04-29T06:50:56;14.60;99.90
6333;DHT22;3199;49.102;8.856;2023-04-29T06:53:22;14.50;99.90
6333;DHT22;3199;49.102;8.856;2023-04-29T06:55:48;14.40;99.90
6333;DHT22;3199;49.102;8.856;2023-04-29T06:58:14;14.30;99.90
6333;DHT22;3199;49.102;8.856;2023-04-29T07:00:43;14.20;99.90
6333;DHT22;3199;49.102;8.856;2023-04-29T07:03:09;14.30;99.90
6333;DHT22;3199;49.102;8.856;2023-04-29T07:05:35;14.30;99.90
6333;DHT22;3199;49.102;8.856;2023-04-29T07:08:03;14.30;99.90
6333;DHT22;3199;49.102;8.856;2023-04-29T07:10:29;14.30;99.90
6333;DHT22;3199;49.102;8.856;2023-04-29T07:12:55;14.30;99.90
6333;DHT22;3199;49.102;8.856;2023-04-29T07:15:21;14.10;99.90
6333;DHT22;3199;49.102;8.856;2023-04-29T07:17:46;14.10;99.90
6333;DHT22;3199;49.102;8.856;2023-04-29T07:20:12;14.10;99.90
6333;DHT22;3199;49.102;8.856;2023-04-29T07:22:37;14.00;99.90
6333;DHT22;3199;49.102;8.856;2023-04-29T07:25:03;13.90;99.90
6333;DHT22;3199;49.102;8.856;2023-04-29T07:27:29;13.90;99.90
6333;DHT22;3199;49.102;8.856;2023-04-29T07:29:55;13.90;99.90
6333;DHT22;3199;49.102;8.856;2023-04-29T07:32:22;14.00;99.90
6333;DHT22;3199;49.102;8.856;2023-04-29T07:34:47;14.00;99.90
6333;DHT22;3199;49.102;8.856;2023-04-29T07:37:13;14.00;99.90
6333;DHT22;3199;49.102;8.856;2023-04-29T07:39:38;14.00;99.90
6333;DHT22;3199;49.102;8.856;2023-04-29T07:42:04;14.10;99.90
6333;DHT22;3199;49.102;8.856;2023-04-29T07:44:29;14.30;99.90
6333;DHT22;3199;49.102;8.856;2023-04-29T07:46:55;14.40;99.90
6333;DHT22;3199;49.102;8.856;2023-04-29T07:49:20;14.60;99.90
6333;DHT22;3199;49.102;8.856;2023-04-29T07:51:46;14.70;99.90
6333;DHT22;3199;49.102;8.856;2023-04-29T07:54:12;14.70;99.90
6333;DHT22;3199;49.102;8.856;2023-04-29T07:56:37;14.70;99.90
6333;DHT22;3199;49.102;8.856;2023-04-29T07:59:03;14.70;99.90
6333;DHT22;3199;49.102;8.856;2023-04-29T08:01:28;14.70;99.90
6333;DHT22;3199;49.102;8.856;2023-04-29T08:03:54;14.70;99.90
6333;DHT22;3199;49.102;8.856;2023-04-29T08:06:19;14.80;99.90
6333;DHT22;3199;49.102;8.856;2023-04-29T08:08:47;14.70;99.90
6333;DHT22;3199;49.102;8.856;2023-04-29T08:11:19;14.80;99.90
6333;DHT22;3199;49.102;8.856;2023-04-29T08:13:45;15.00;99.90
6333;DHT22;3199;49.102;8.856;2023-04-29T08:16:11;15.00;99.90
6333;DHT22;3199;49.102;8.856;2023-04-29T08:18:37;15.00;99.90
6333;DHT22;3199;49.102;8.856;2023-04-29T08:21:03;15.00;99.90
6333;DHT22;3199;49.102;8.856;2023-04-29T08:23:29;15.10;99.90
6333;DHT22;3199;49.102;8.856;2023-04-29T08:25:54;15.30;99.90
6333;DHT22;3199;49.102;8.856;2023-04-29T08:28:21;15.40;99.90
6333;DHT22;3199;49.102;8.856;2023-04-29T08:30:47;15.40;99.90
6333;DHT22;3199;49.102;8.856;2023-04-29T08:33:13;15.40;99.90
6333;DHT22;3199;49.102;8.856;2023-04-29T08:35:39;15.50;99.90
6333;DHT22;3199;49.102;8.856;2023-04-29T08:38:06;15.70;99.90
6333;DHT22;3199;49.102;8.856;2023-04-29T08:40:37;15.70;99.90
6333;DHT22;3199;49.102;8.856;2023-04-29T08:43:06;15.70;99.90
6333;DHT22;3199;49.102;8.856;2023-04-29T08:45:34;15.70;99.90
6333;DHT22;3199;49.102;8.856;2023-04-29T08:48:02;15.70;99.90
6333;DHT22;3199;49.102;8.856;2023-04-29T08:50:29;15.60;99.90
6333;DHT22;3199;49.102;8.856;2023-04-29T08:52:55;15.60;99.90
6333;DHT22;3199;49.102;8.856;2023-04-29T08:55:21;15.50;99.90
6333;DHT22;3199;49.102;8.856;2023-04-29T08:57:49;15.50;99.90
6333;DHT22;3199;49.102;8.856;2023-04-29T09:00:16;15.60;99.90
6333;DHT22;3199;49.102;8.856;2023-04-29T09:02:50;15.60;99.90
6333;DHT22;3199;49.102;8.856;2023-04-29T09:05:16;15.50;99.90
6333;DHT22;3199;49.102;8.856;2023-04-29T09:07:43;15.40;99.90
6333;DHT22;3199;49.102;8.856;2023-04-29T09:10:09;15.40;99.90
6333;DHT22;3199;49.102;8.856;2023-04-29T09:12:35;15.40;99.90
6333;DHT22;3199;49.102;8.856;2023-04-29T09:15:01;15.40;99.90
6333;DHT22;3199;49.102;8.856;2023-04-29T09:17:39;15.40;99.90
6333;DHT22;3199;49.102;8.856;2023-04-29T09:23:02;15.30;99.90
6333;DHT22;3199;49.102;8.856;2023-04-29T09:25:28;15.20;99.90
6333;DHT22;3199;49.102;8.856;2023-04-29T09:27:55;15.10;99.90
6333;DHT22;3199;49.102;8.856;2023-04-29T09:30:22;15.10;99.90
6333;DHT22;3199;49.102;8.856;2023-04-29T09:33:17;15.10;99.90
6333;DHT22;3199;49.102;8.856;2023-04-29T09:35:42;15.20;99.90
6333;DHT22;3199;49.102;8.856;2023-04-29T09:38:12;15.40;99.90
6333;DHT22;3199;49.102;8.856;2023-04-29T09:40:40;15.50;99.90
6333;DHT22;3199;49.102;8.856;2023-04-29T09:43:14;15.70;99.90
6333;DHT22;3199;49.102;8.856;2023-04-29T09:45:42;15.80;99.90
6333;DHT22;3199;49.102;8.856;2023-04-29T09:48:09;15.80;99.90
6333;DHT22;3199;49.102;8.856;2023-04-29T09:50:36;15.80;99.90
6333;DHT22;3199;49.102;8.856;2023-04-29T09:53:03;15.70;99.90
6333;DHT22;3199;49.102;8.856;2023-04-29T09:55:30;15.80;99.90
6333;DHT22;3199;49.102;8.856;2023-04-29T09:57:56;15.80;99.90
6333;DHT22;3199;49.102;8.856;2023-04-29T10:00:22;15.70;99.90
6333;DHT22;3199;49.102;8.856;2023-04-29T10:02:48;15.70;99.90
6333;DHT22;3199;49.102;8.856;2023-04-29T10:05:15;15.70;99.90
6333;DHT22;3199;49.102;8.856;2023-04-29T10:07:41;15.70;99.90
6333;DHT22;3199;49.102;8.856;2023-04-29T10:10:08;15.70;99.90
6333;DHT22;3199;49.102;8.856;2023-04-29T10:12:36;15.70;99.90
6333;DHT22;3199;49.102;8.856;2023-04-29T10:20:45;15.60;99.90
6333;DHT22;3199;49.102;8.856;2023-04-29T10:23:12;15.60;99.90
6333;DHT22;3199;49.102;8.856;2023-04-29T10:25:43;15.60;99.90
6333;DHT22;3199;49.102;8.856;2023-04-29T10:28:12;15.60;99.90
6333;DHT22;3199;49.102;8.856;2023-04-29T10:30:39;15.70;99.90
6333;DHT22;3199;49.102;8.856;2023-04-29T10:33:08;15.80;99.90
6333;DHT22;3199;49.102;8.856;2023-04-29T10:35:35;15.80;99.90
6333;DHT22;3199;49.102;8.856;2023-04-29T10:38:14;15.90;99.90
6333;DHT22;3199;49.102;8.856;2023-04-29T10:40:44;16.00;99.90
6333;DHT22;3199;49.102;8.856;2023-04-29T10:43:12;16.20;99.90
6333;DHT22;3199;49.102;8.856;2023-04-29T10:45:38;16.20;99.90
6333;DHT22;3199;49.102;8.856;2023-04-29T10:53:06;16.70;99.90
6333;DHT22;3199;49.102;8.856;2023-04-29T10:55:35;16.90;99.90
6333;DHT22;3199;49.102;8.856;2023-04-29T10:58:04;17.00;99.90
6333;DHT22;3199;49.102;8.856;2023-04-29T11:00:31;16.90;99.90
6333;DHT22;3199;49.102;8.856;2023-04-29T11:02:59;16.90;99.90
6333;DHT22;3199;49.102;8.856;2023-04-29T11:05:35;16.80;99.90
6333;DHT22;3199;49.102;8.856;2023-04-29T11:08:20;16.70;99.90
6333;DHT22;3199;49.102;8.856;2023-04-29T11:10:52;16.70;99.90
6333;DHT22;3199;49.102;8.856;2023-04-29T11:13:29;16.70;99.90
6333;DHT22;3199;49.102;8.856;2023-04-29T11:16:04;16.70;99.90
6333;DHT22;3199;49.102;8.856;2023-04-29T11:18:30;16.70;99.90
6333;DHT22;3199;49.102;8.856;2023-04-29T11:23:33;16.70;99.90
6333;DHT22;3199;49.102;8.856;2023-04-29T11:26:00;16.70;99.90
6333;DHT22;3199;49.102;8.856;2023-04-29T11:28:32;16.70;99.90
6333;DHT22;3199;49.102;8.856;2023-04-29T11:30:58;16.70;99.90
6333;DHT22;3199;49.102;8.856;2023-04-29T11:33:24;16.70;99.90
6333;DHT22;3199;49.102;8.856;2023-04-29T11:35:55;16.60;99.90
6333;DHT22;3199;49.102;8.856;2023-04-29T11:38:25;16.50;99.90
6333;DHT22;3199;49.102;8.856;2023-04-29T11:40:51;16.40;99.90
6333;DHT22;3199;49.102;8.856;2023-04-29T11:43:21;16.40;99.90
6333;DHT22;3199;49.102;8.856;2023-04-29T11:45:47;16.30;99.90
6333;DHT22;3199;49.102;8.856;2023-04-29T11:48:24;16.30;99.90
6333;DHT22;3199;49.102;8.856;2023-04-29T11:50:56;16.40;99.90
6333;DHT22;3199;49.102;8.856;2023-04-29T11:53:23;16.40;99.90
6333;DHT22;3199;49.102;8.856;2023-04-29T11:55:52;16.30;99.90
6333;DHT22;3199;49.102;8.856;2023-04-29T11:58:20;16.30;99.90
6333;DHT22;3199;49.102;8.856;2023-04-29T12:00:49;16.30;99.90
6333;DHT22;3199;49.102;8.856;2023-04-29T12:03:16;16.40;99.90
6333;DHT22;3199;49.102;8.856;2023-04-29T12:05:52;16.30;99.90
6333;DHT22;3199;49.102;8.856;2023-04-29T12:10:46;16.40;99.90
6333;DHT22;3199;49.102;8.856;2023-04-29T12:13:12;16.40;99.90
6333;DHT22;3199;49.102;8.856;2023-04-29T12:15:38;16.50;99.90
6333;DHT22;3199;49.102;8.856;2023-04-29T12:18:04;16.50;99.90
6333;DHT22;3199;49.102;8.856;2023-04-29T12:20:30;16.50;99.90
6333;DHT22;3199;49.102;8.856;2023-04-29T12:22:55;16.50;99.90
6333;DHT22;3199;49.102;8.856;2023-04-29T12:25:26;16.60;99.90
6333;DHT22;3199;49.102;8.856;2023-04-29T12:27:58;16.70;99.90
6333;DHT22;3199;49.102;8.856;2023-04-29T12:30:24;16.60;99.90
6333;DHT22;3199;49.102;8.856;2023-04-29T12:32:51;16.70;99.90
6333;DHT22;3199;49.102;8.856;2023-04-29T12:35:16;16.70;99.90
6333;DHT22;3199;49.102;8.856;2023-04-29T12:37:42;16.90;99.90
6333;DHT22;3199;49.102;8.856;2023-04-29T12:40:12;17.00;99.90
6333;DHT22;3199;49.102;8.856;2023-04-29T12:42:40;17.10;99.90
6333;DHT22;3199;49.102;8.856;2023-04-29T12:45:06;17.20;99.80
6333;DHT22;3199;49.102;8.856;2023-04-29T12:47:32;17.20;99.90
6333;DHT22;3199;49.102;8.856;2023-04-29T12:50:00;17.30;99.70
6333;DHT22;3199;49.102;8.856;2023-04-29T12:52:25;17.40;99.20
6333;DHT22;3199;49.102;8.856;2023-04-29T12:54:51;17.30;99.90
6333;DHT22;3199;49.102;8.856;2023-04-29T12:57:16;17.40;99.90
6333;DHT22;3199;49.102;8.856;2023-04-29T12:59:42;17.50;99.90
6333;DHT22;3199;49.102;8.856;2023-04-29T13:02:07;17.60;99.90
6333;DHT22;3199;49.102;8.856;2023-04-29T13:04:33;17.70;98.90
6333;DHT22;3199;49.102;8.856;2023-04-29T13:06:58;17.70;98.70
6333;DHT22;3199;49.102;8.856;2023-04-29T13:09:27;17.60;98.80
6333;DHT22;3199;49.102;8.856;2023-04-29T13:11:54;17.50;99.10
6333;DHT22;3199;49.102;8.856;2023-04-29T13:14:20;17.60;98.90
6333;DHT22;3199;49.102;8.856;2023-04-29T13:16:46;17.40;99.40
6333;DHT22;3199;49.102;8.856;2023-04-29T13:19:12;17.40;99.70
6333;DHT22;3199;49.102;8.856;2023-04-29T13:21:37;17.50;99.40
6333;DHT22;3199;49.102;8.856;2023-04-29T13:24:03;17.60;99.90
6333;DHT22;3199;49.102;8.856;2023-04-29T13:26:29;17.90;99.40
6333;DHT22;3199;49.102;8.856;2023-04-29T13:28:55;18.10;98.50
6333;DHT22;3199;49.102;8.856;2023-04-29T13:31:20;18.20;98.40
6333;DHT22;3199;49.102;8.856;2023-04-29T13:33:46;18.20;97.90
6333;DHT22;3199;49.102;8.856;2023-04-29T13:36:12;18.10;98.50
6333;DHT22;3199;49.102;8.856;2023-04-29T13:38:39;18.20;97.90
6333;DHT22;3199;49.102;8.856;2023-04-29T13:41:04;18.20;97.70
6333;DHT22;3199;49.102;8.856;2023-04-29T13:43:30;18.20;97.70
6333;DHT22;3199;49.102;8.856;2023-04-29T13:45:56;18.30;97.50
6333;DHT22;3199;49.102;8.856;2023-04-29T13:48:21;18.40;97.50
6333;DHT22;3199;49.102;8.856;2023-04-29T13:50:47;18.30;97.70
6333;DHT22;3199;49.102;8.856;2023-04-29T13:53:13;18.30;97.90
6333;DHT22;3199;49.102;8.856;2023-04-29T13:55:41;18.30;97.60
6333;DHT22;3199;49.102;8.856;2023-04-29T13:58:07;18.30;97.70
6333;DHT22;3199;49.102;8.856;2023-04-29T14:00:32;18.20;97.30
6333;DHT22;3199;49.102;8.856;2023-04-29T14:02:58;18.00;97.40
6333;DHT22;3199;49.102;8.856;2023-04-29T14:05:23;17.80;97.60
6333;DHT22;3199;49.102;8.856;2023-04-29T14:07:49;17.70;97.80
6333;DHT22;3199;49.102;8.856;2023-04-29T14:10:14;17.60;98.20
6333;DHT22;3199;49.102;8.856;2023-04-29T14:12:40;17.50;98.40
6333;DHT22;3199;49.102;8.856;2023-04-29T14:15:06;17.30;98.20
6333;DHT22;3199;49.102;8.856;2023-04-29T14:17:32;17.20;98.40
6333;DHT22;3199;49.102;8.856;2023-04-29T14:19:57;17.00;98.30
6333;DHT22;3199;49.102;8.856;2023-04-29T14:22:23;17.00;98.40
6333;DHT22;3199;49.102;8.856;2023-04-29T14:24:48;17.10;98.60
6333;DHT22;3199;49.102;8.856;2023-04-29T14:27:14;17.10;98.90
6333;DHT22;3199;49.102;8.856;2023-04-29T14:29:39;17.20;98.60
6333;DHT22;3199;49.102;8.856;2023-04-29T14:32:05;17.30;98.20
6333;DHT22;3199;49.102;8.856;2023-04-29T14:34:31;17.30;98.30
6333;DHT22;3199;49.102;8.856;2023-04-29T14:36:57;17.30;98.20
6333;DHT22;3199;49.102;8.856;2023-04-29T14:39:23;17.20;97.90
6333;DHT22;3199;49.102;8.856;2023-04-29T14:41:50;17.20;98.10
6333;DHT22;3199;49.102;8.856;2023-04-29T14:44:15;17.10;98.10
6333;DHT22;3199;49.102;8.856;2023-04-29T14:46:41;17.00;97.90
6333;DHT22;3199;49.102;8.856;2023-04-29T14:49:06;17.00;97.90
6333;DHT22;3199;49.102;8.856;2023-04-29T14:51:32;16.90;98.20
6333;DHT22;3199;49.102;8.856;2023-04-29T14:53:57;16.90;98.00
6333;DHT22;3199;49.102;8.856;2023-04-29T14:56:23;16.80;98.20
6333;DHT22;3199;49.102;8.856;2023-04-29T14:58:48;16.80;98.50
6333;DHT22;3199;49.102;8.856;2023-04-29T15:01:14;16.80;98.20
6333;DHT22;3199;49.102;8.856;2023-04-29T15:03:39;16.90;98.50
6333;DHT22;3199;49.102;8.856;2023-04-29T15:06:06;16.90;98.30
6333;DHT22;3199;49.102;8.856;2023-04-29T15:08:31;16.90;98.30
6333;DHT22;3199;49.102;8.856;2023-04-29T15:10:57;16.90;98.50
6333;DHT22;3199;49.102;8.856;2023-04-29T15:13:22;16.90;98.50
6333;DHT22;3199;49.102;8.856;2023-04-29T15:15:48;17.00;98.30
6333;DHT22;3199;49.102;8.856;2023-04-29T15:18:13;17.00;98.40
6333;DHT22;3199;49.102;8.856;2023-04-29T15:20:39;17.10;98.20
6333;DHT22;3199;49.102;8.856;2023-04-29T15:23:05;17.10;98.70
6333;DHT22;3199;49.102;8.856;2023-04-29T15:25:31;17.20;98.40
6333;DHT22;3199;49.102;8.856;2023-04-29T15:27:58;17.30;98.20
6333;DHT22;3199;49.102;8.856;2023-04-29T15:30:26;17.20;98.40
6333;DHT22;3199;49.102;8.856;2023-04-29T15:32:52;17.30;98.50
6333;DHT22;3199;49.102;8.856;2023-04-29T15:35:17;17.30;98.70
6333;DHT22;3199;49.102;8.856;2023-04-29T15:37:43;17.30;98.30
6333;DHT22;3199;49.102;8.856;2023-04-29T15:40:09;17.40;98.40
6333;DHT22;3199;49.102;8.856;2023-04-29T15:42:34;17.40;97.90
6333;DHT22;3199;49.102;8.856;2023-04-29T15:45:00;17.30;97.80
6333;DHT22;3199;49.102;8.856;2023-04-29T15:47:25;17.20;97.70
6333;DHT22;3199;49.102;8.856;2023-04-29T15:49:51;17.10;97.50
6333;DHT22;3199;49.102;8.856;2023-04-29T15:52:16;17.00;97.40
6333;DHT22;3199;49.102;8.856;2023-04-29T15:54:42;16.90;97.40
6333;DHT22;3199;49.102;8.856;2023-04-29T15:57:07;16.80;97.70
6333;DHT22;3199;49.102;8.856;2023-04-29T15:59:33;16.80;97.90
6333;DHT22;3199;49.102;8.856;2023-04-29T16:01:59;16.70;98.10
6333;DHT22;3199;49.102;8.856;2023-04-29T16:04:24;16.60;98.10
6333;DHT22;3199;49.102;8.856;2023-04-29T16:06:51;16.60;98.30
6333;DHT22;3199;49.102;8.856;2023-04-29T16:09:17;16.60;98.70
6333;DHT22;3199;49.102;8.856;2023-04-29T16:11:42;16.60;98.70
6333;DHT22;3199;49.102;8.856;2023-04-29T16:14:08;16.60;98.70
6333;DHT22;3199;49.102;8.856;2023-04-29T16:16:33;16.60;98.40
6333;DHT22;3199;49.102;8.856;2023-04-29T16:18:59;16.60;98.10
6333;DHT22;3199;49.102;8.856;2023-04-29T16:21:24;16.50;98.30
6333;DHT22;3199;49.102;8.856;2023-04-29T16:23:50;16.50;98.30
6333;DHT22;3199;49.102;8.856;2023-04-29T16:26:16;16.40;98.40